Uleta, Florida
Current Conditions -  °F | °C
As of 1:53 PM on Saturday 25 Oct 2014 (Local Time) from KHWO Reporting Station
Few Clouds Few Clouds  
Wind Chill: 85°   Ceiling: Unl
Heat Index: 85°   Visibility: 10mi
Dew Point: 62°   Wind: 12mph
Humidity: 46%   Direction: 350°N
Pressure: 29.91"   Gusts: NA
Location:  25.9298°N, 80.1792°W
Report Text: KHWO 251753Z 35010KT 10SM FEW050 29/17 A2991 RMK AO2 SLP128 T02940167 10294 20194 58011
Loading
Personal Weather Stations






























Interactive Weather Map
Tropical Storm Tracking
New forecast layout! Learn more

10-Day Weather Forecast

Advertisements
Track Severe Weather on mobile